createdAt,value
2022-12-18T00:03:38.775Z,8.61
2022-12-18T00:08:43.321Z,8.38
2022-12-18T00:13:48.001Z,8.40
2022-12-18T00:18:54.942Z,8.45
2022-12-18T00:23:58.808Z,8.43
2022-12-18T00:29:05.699Z,8.35
2022-12-18T00:34:12.199Z,8.26
2022-12-18T00:39:17.168Z,8.22
2022-12-18T00:44:21.934Z,8.18
2022-12-18T00:49:26.893Z,8.16
2022-12-18T00:54:30.442Z,8.08
2022-12-18T00:59:33.902Z,8.15
2022-12-18T01:04:39.124Z,8.10
2022-12-18T01:09:42.794Z,8.12
2022-12-18T01:14:46.592Z,8.15
2022-12-18T01:19:53.207Z,8.14
2022-12-18T01:24:56.650Z,8.06
2022-12-18T01:30:00.211Z,8.14
2022-12-18T01:35:06.528Z,8.18
2022-12-18T01:40:11.029Z,8.21
2022-12-18T01:45:28.771Z,8.09
2022-12-18T01:50:38.056Z,8.12
2022-12-18T01:55:45.594Z,7.82
2022-12-18T02:00:50.402Z,7.76
2022-12-18T02:06:07.220Z,7.58
2022-12-18T02:11:17.786Z,7.72
2022-12-18T02:16:27.090Z,7.68
2022-12-18T02:21:39.805Z,7.58
2022-12-18T02:26:48.754Z,7.58
2022-12-18T02:31:56.715Z,7.43
2022-12-18T02:37:04.283Z,7.63
2022-12-18T02:42:10.068Z,7.59
2022-12-18T02:47:15.778Z,7.51
2022-12-18T02:52:27.418Z,7.38
2022-12-18T02:57:39.543Z,7.29
2022-12-18T03:02:50.671Z,7.11
2022-12-18T03:08:00.001Z,6.97
2022-12-18T03:13:12.005Z,6.93
2022-12-18T03:18:19.801Z,6.87
2022-12-18T03:23:26.427Z,6.86
2022-12-18T03:28:34.346Z,6.82
2022-12-18T03:33:44.649Z,6.63
2022-12-18T03:38:48.376Z,6.70
2022-12-18T03:44:02.739Z,6.68
2022-12-18T03:49:13.699Z,6.56
2022-12-18T03:54:19.688Z,6.43
2022-12-18T03:59:34.358Z,6.26
2022-12-18T04:04:39.800Z,6.28
2022-12-18T04:09:45.877Z,6.07
2022-12-18T04:14:52.137Z,5.85
2022-12-18T04:19:55.838Z,5.78
2022-12-18T04:25:01.353Z,5.65
2022-12-18T04:30:14.522Z,5.64
2022-12-18T04:35:18.642Z,5.61
2022-12-18T04:40:22.621Z,5.64
2022-12-18T04:45:28.621Z,5.67
2022-12-18T04:50:32.795Z,5.63
2022-12-18T04:55:36.295Z,5.49
2022-12-18T05:00:41.181Z,5.52
2022-12-18T05:05:44.936Z,5.41
2022-12-18T05:10:48.739Z,5.48
2022-12-18T05:15:55.399Z,5.37
2022-12-18T05:20:59.278Z,5.35
2022-12-18T05:26:05.895Z,5.38
2022-12-18T05:31:11.119Z,5.24
2022-12-18T05:36:14.794Z,5.14
2022-12-18T05:41:18.298Z,5.18
2022-12-18T05:46:23.371Z,5.17
2022-12-18T05:51:27.038Z,4.96
2022-12-18T05:56:30.402Z,4.99
2022-12-18T06:01:35.462Z,5.04
2022-12-18T06:06:39.265Z,4.97
2022-12-18T06:11:42.920Z,4.96
2022-12-18T06:16:47.722Z,4.96
2022-12-18T06:21:51.856Z,5.03
2022-12-18T06:26:55.325Z,5.11
2022-12-18T06:32:00.903Z,5.02
2022-12-18T06:37:05.432Z,5.24
2022-12-18T06:42:09.046Z,5.19
2022-12-18T06:47:14.258Z,5.14
2022-12-18T06:52:17.788Z,5.01
2022-12-18T06:57:21.306Z,4.94
2022-12-18T07:02:26.244Z,4.91
2022-12-18T07:07:29.803Z,4.87
2022-12-18T07:12:33.218Z,4.94
2022-12-18T07:17:38.172Z,5.06
2022-12-18T07:22:41.650Z,4.93
2022-12-18T07:27:45.129Z,4.91
2022-12-18T07:32:50.296Z,4.96
2022-12-18T07:37:53.942Z,5.09
2022-12-18T07:42:57.364Z,5.16
2022-12-18T07:48:02.390Z,5.15
2022-12-18T07:53:06.191Z,5.09
2022-12-18T07:58:10.301Z,5.23
2022-12-18T08:03:16.469Z,5.07
2022-12-18T08:08:19.959Z,5.14
2022-12-18T08:13:24.301Z,5.22
2022-12-18T08:18:29.671Z,5.08
2022-12-18T08:23:35.094Z,5.13
2022-12-18T08:28:42.720Z,5.26
2022-12-18T08:33:48.108Z,5.29
2022-12-18T08:38:51.788Z,5.14
2022-12-18T08:44:12.510Z,5.27
2022-12-18T08:49:17.370Z,5.38
2022-12-18T08:54:21.825Z,5.31
2022-12-18T08:59:25.592Z,5.20
2022-12-18T09:04:30.479Z,5.16
2022-12-18T09:09:34.119Z,5.28
2022-12-18T09:14:38.514Z,5.22
2022-12-18T09:19:43.399Z,5.14
2022-12-18T09:24:46.825Z,5.23
2022-12-18T09:29:50.392Z,5.32
2022-12-18T09:34:55.185Z,5.29
2022-12-18T09:39:58.615Z,5.49
2022-12-18T09:45:03.208Z,5.54
2022-12-18T09:50:22.806Z,5.59
2022-12-18T09:55:36.617Z,5.67
2022-12-18T10:00:41.094Z,5.88
2022-12-18T10:05:52.264Z,6.22
2022-12-18T10:10:59.929Z,6.51
2022-12-18T10:16:13.403Z,6.20
2022-12-18T10:21:23.909Z,6.21
2022-12-18T10:26:27.471Z,6.34
2022-12-18T10:31:30.914Z,6.43
2022-12-18T10:36:36.140Z,6.67
2022-12-18T10:41:39.711Z,6.50
2022-12-18T10:46:43.664Z,6.36
2022-12-18T10:51:48.745Z,6.28
2022-12-18T10:56:52.378Z,6.28
2022-12-18T11:01:57.839Z,6.47
2022-12-18T11:07:04.934Z,6.36
2022-12-18T11:12:18.226Z,6.38
2022-12-18T11:17:25.924Z,6.48
2022-12-18T11:22:33.976Z,6.11
2022-12-18T11:27:37.513Z,6.41
2022-12-18T11:32:43.154Z,6.34
2022-12-18T11:37:53.193Z,6.39
2022-12-18T11:43:03.494Z,6.56
2022-12-18T11:48:19.096Z,6.45
2022-12-18T11:53:25.254Z,6.24
2022-12-18T11:58:39.945Z,6.38
2022-12-18T12:04:21.620Z,6.45
2022-12-18T12:09:33.605Z,6.22
2022-12-18T12:14:51.986Z,6.27
2022-12-18T12:20:04.561Z,6.13
2022-12-18T12:25:34.248Z,6.39
2022-12-18T12:30:50.882Z,6.35
2022-12-18T12:36:02.338Z,6.24
2022-12-18T12:41:31.519Z,6.27
2022-12-18T12:46:39.490Z,5.99
2022-12-18T12:51:47.097Z,6.02
2022-12-18T12:56:57.091Z,6.03
2022-12-18T13:02:07.904Z,6.01
2022-12-18T13:07:18.735Z,6.09
2022-12-18T13:12:41.339Z,6.00
2022-12-18T13:17:46.182Z,6.04
2022-12-18T13:22:51.958Z,5.95
2022-12-18T13:28:04.756Z,6.08
2022-12-18T13:33:56.259Z,5.97
2022-12-18T13:39:30.024Z,5.74
2022-12-18T13:44:41.544Z,5.82
2022-12-18T13:49:46.839Z,5.70
2022-12-18T13:54:55.166Z,5.86
2022-12-18T14:00:21.836Z,5.96
2022-12-18T14:05:27.561Z,5.80
2022-12-18T14:10:47.619Z,5.84
2022-12-18T14:15:54.732Z,5.58
2022-12-18T14:21:02.668Z,5.42
2022-12-18T14:26:24.032Z,5.36
2022-12-18T14:31:33.335Z,5.31
2022-12-18T14:36:37.109Z,5.31
2022-12-18T14:41:40.633Z,5.32
2022-12-18T14:46:46.924Z,4.92
2022-12-18T14:51:51.988Z,4.87
2022-12-18T14:57:02.300Z,4.94
2022-12-18T15:02:15.980Z,5.03
2022-12-18T15:07:22.136Z,4.98
2022-12-18T15:12:32.630Z,4.63
2022-12-18T15:17:43.614Z,4.73
2022-12-18T15:22:50.071Z,4.57
2022-12-18T15:27:54.050Z,4.60
2022-12-18T15:33:25.969Z,4.65
2022-12-18T15:38:29.743Z,4.54
2022-12-18T15:43:36.391Z,4.69
2022-12-18T15:48:43.534Z,4.71
2022-12-18T15:53:47.679Z,4.51
2022-12-18T15:58:51.157Z,4.35
2022-12-18T16:03:56.590Z,4.42
2022-12-18T16:09:00.670Z,4.38
2022-12-18T16:14:04.405Z,4.26
2022-12-18T16:19:09.801Z,4.33
2022-12-18T16:24:17.255Z,4.11
2022-12-18T16:29:25.799Z,4.09
2022-12-18T16:34:35.413Z,4.23
2022-12-18T16:39:40.665Z,4.13
2022-12-18T16:44:45.331Z,4.11
2022-12-18T16:49:53.008Z,4.12
2022-12-18T16:54:56.911Z,4.02
2022-12-18T17:00:05.064Z,3.78
2022-12-18T17:05:10.997Z,3.86
2022-12-18T17:10:15.831Z,3.49
2022-12-18T17:15:19.445Z,3.46
2022-12-18T17:20:25.096Z,3.79
2022-12-18T17:25:28.911Z,3.73
2022-12-18T17:30:32.355Z,3.36
2022-12-18T17:35:37.653Z,3.33
2022-12-18T17:40:46.040Z,3.30
2022-12-18T17:46:09.389Z,3.28
2022-12-18T17:51:13.717Z,3.17
2022-12-18T17:56:20.081Z,3.08
2022-12-18T18:01:26.845Z,3.14
2022-12-18T18:06:30.391Z,3.13
2022-12-18T18:11:53.291Z,3.10
2022-12-18T18:17:04.724Z,3.00
2022-12-18T18:22:08.615Z,2.81
2022-12-18T18:27:12.384Z,2.84
2022-12-18T18:32:17.381Z,2.81
2022-12-18T18:37:21.024Z,2.55
2022-12-18T18:42:24.501Z,2.60
2022-12-18T18:47:30.697Z,2.68
2022-12-18T18:52:34.247Z,2.63
2022-12-18T18:57:38.436Z,2.43
2022-12-18T19:02:43.420Z,2.36
2022-12-18T19:07:47.385Z,2.31
2022-12-18T19:13:07.925Z,2.48
2022-12-18T19:18:13.203Z,2.53
2022-12-18T19:23:16.705Z,2.44
2022-12-18T19:28:26.015Z,2.52
2022-12-18T19:33:48.191Z,2.58
2022-12-18T19:38:52.492Z,2.43
2022-12-18T19:43:56.147Z,2.36
2022-12-18T19:49:01.938Z,2.36
2022-12-18T19:54:07.071Z,2.28
2022-12-18T19:59:11.184Z,2.29
2022-12-18T20:04:16.072Z,2.35
2022-12-18T20:09:20.502Z,2.21
2022-12-18T20:14:25.063Z,2.24
2022-12-18T20:19:30.017Z,2.16
2022-12-18T20:24:33.532Z,2.07
2022-12-18T20:29:36.887Z,2.13
2022-12-18T20:34:42.285Z,2.16
2022-12-18T20:39:46.658Z,2.19
2022-12-18T20:44:50.870Z,2.19
2022-12-18T20:49:56.469Z,2.37
2022-12-18T20:54:59.841Z,2.17
2022-12-18T21:00:08.485Z,1.87
2022-12-18T21:05:13.867Z,2.06
2022-12-18T21:10:17.315Z,1.90
2022-12-18T21:15:26.811Z,2.10
2022-12-18T21:20:33.465Z,2.10
2022-12-18T21:25:37.090Z,2.33
2022-12-18T21:30:41.015Z,2.39
2022-12-18T21:35:46.061Z,2.02
2022-12-18T21:40:49.433Z,2.06
2022-12-18T21:45:52.929Z,1.88
2022-12-18T21:50:57.755Z,1.55
2022-12-18T21:56:01.800Z,1.59
2022-12-18T22:01:05.300Z,1.42
2022-12-18T22:06:10.488Z,1.50
2022-12-18T22:11:14.644Z,1.12
2022-12-18T22:16:19.636Z,1.33
2022-12-18T22:21:29.278Z,1.16
2022-12-18T22:26:39.466Z,1.22
2022-12-18T22:31:43.689Z,1.27
2022-12-18T22:36:49.714Z,1.05
2022-12-18T22:41:53.718Z,1.15
2022-12-18T22:47:06.954Z,1.03
2022-12-18T22:52:12.458Z,1.02
2022-12-18T22:57:16.965Z,1.11
2022-12-18T23:02:21.029Z,0.98
2022-12-18T23:07:25.989Z,0.92
2022-12-18T23:12:29.477Z,0.78
2022-12-18T23:17:32.974Z,0.81
2022-12-18T23:22:38.021Z,0.90
2022-12-18T23:27:41.398Z,0.92
2022-12-18T23:32:44.757Z,0.81
2022-12-18T23:37:58.676Z,0.93
2022-12-18T23:43:03.078Z,0.86
2022-12-18T23:48:06.460Z,0.64
2022-12-18T23:53:11.944Z,0.61
2022-12-18T23:58:18.530Z,0.64
